Flight Track Log - Related Links

Times and Time Zones

All times are in EDT time to prevent confusion due to time zone crossing. See the JIA2416 flight status page for this flight to view local times or setup timezone preferences in your user account.

Time Position Orientation Groundspeed Altitude Reporting Facility
EDT Latitude Longitude Course Direction KTS MPH feet Rate Location/Type
Sun 06:04:06 PM 35.1928 -80.9356 North 162 186 1,400  Level Atlanta Center
Sun 06:05:38 PM 35.1167 -80.8903 154° Southeast 260 299 4,000 2,078 Climbing Atlanta Center
Sun 06:06:00 PM 35.1000 -80.6592 90° East  Level FlightAware Approximate
Sun 06:06:39 PM 35.0936 -80.8072 109° East 287 330 6,700  Level Atlanta Center
Sun 06:07:00 PM 35.1679 -80.5881 29° Northeast  Level FlightAware Approximate
Sun 06:07:30 PM 35.1269 -80.7297 62° Northeast 297 342 8,300  Level Atlanta Center
Sun 06:08:00 PM 35.2535 -80.5285 30° Northeast  Level FlightAware Approximate
Sun 06:08:30 PM 35.1686 -80.6519 57° Northeast 322 371 10,700  Level Atlanta Center
Sun 06:09:00 PM 35.3284 -80.4667 North  Level FlightAware Approximate
Sun 06:09:30 PM 35.2161 -80.5586 58° Northeast 322 371 12,500  Level Atlanta Center
Sun 06:10:30 PM 35.2678 -80.4622 57° Northeast 322 371 14,600 1,819 Climbing Atlanta Center
Sun 06:12:38 PM 35.3767 -80.2511 58° Northeast 344 396 18,200 1,556 Climbing Washington Center
Sun 06:13:39 PM 35.4308 -80.1447 58° Northeast 349 402 19,500 1,140 Climbing Washington Center
Sun 06:14:39 PM 35.4822 -80.0533 55° Northeast 354 407 20,500 744 Climbing Washington Center
Sun 06:15:40 PM 35.5367 -79.9389 60° Northeast 359 413 21,000 248 Climbing Washington Center
Sun 06:16:40 PM 35.5864 -79.8292 61° Northeast 370 426 21,000  Level Washington Center
Sun 06:17:38 PM 35.6406 -79.7172 59° Northeast 375 432 21,000  Level Washington Center
Sun 06:18:39 PM 35.6908 -79.5892 64° Northeast 370 426 21,000  Level Washington Center
Sun 06:19:40 PM 35.7275 -79.4836 67° East 370 426 21,000  Level Washington Center
Sun 06:20:40 PM 35.7253 -79.3583 91° East 354 407 21,000  Level Washington Center
Sun 06:21:39 PM 35.7211 -79.2300 92° East 359 413 21,000  Level Washington Center
Sun 06:22:39 PM 35.7147 -79.0942 93° East 367 422 21,000  Level Washington Center
Sun 06:23:40 PM 35.7100 -78.9661 93° East 367 422 21,000  Level Washington Center
Sun 06:24:38 PM 35.7053 -78.8381 93° East 367 422 21,000 -150 Level Washington Center
Sun 06:25:40 PM 35.7003 -78.7100 93° East 367 422 20,700 -1,150 Descending Washington Center
Sun 06:26:38 PM 35.6950 -78.5869 93° East 367 422 18,700 -1,815 Descending Washington Center
Sun 06:27:39 PM 35.6919 -78.4642 92° East 367 422 17,100 -1,672 Descending Washington Center
Sun 06:28:40 PM 35.6839 -78.3511 95° East 356 410 15,300 -1,765 Descending Washington Center
Sun 06:29:38 PM 35.6803 -78.2386 92° East 337 388 13,600 -1,220 Descending Washington Center
Sun 06:30:38 PM 35.6744 -78.1283 94° East 331 381 12,900 -694 Descending Washington Center
Sun 06:31:39 PM 35.6683 -78.0208 94° East 326 375 12,200 -1,339 Descending Washington Center
Sun 06:32:39 PM 35.6642 -77.9133 93° East 321 369 10,200 -1,983 Descending Washington Center
Sun 06:33:40 PM 35.6578 -77.8136 94° East 309 356 8,200 -1,983 Descending Washington Center
Sun 06:34:40 PM 35.6531 -77.7161 93° East 298 343 6,200 -1,932 Descending Washington Center
Sun 06:35:38 PM 35.6486 -77.6217 93° East 286 329 4,400 -1,613 Descending Washington Center
Sun 06:36:39 PM 35.6439 -77.5319 94° East 273 314 3,000 -934 Descending Washington Center
Sun 06:37:40 PM 35.6450 -77.4578 89° East 244 281 2,500 -694 Descending Washington Center
Sun 06:38:40 PM 35.6397 -77.3889 95° East 215 247 1,600 -458 Descending Washington Center
Sun 06:39:38 PM 35.6511 -77.3303 77° East 192 221 1,600  Level Washington Center

Login

Don't have an account? Register now (free) for customized features, flight alerts, and more!